Peralta — WDB9847 — position and weather

sailwx.info

Track history (hours):
 
Tides and Currents Weather Stations Pressure Air Temp Water Temp Dewpoint Dewpoint Depression Visibility Wind Speed Wind Dir Waves Ship Positions

Peralta

Owner: Blue and Gold Fleet, San Francisco, CA. More information available from US FCC via Universal Licensing System and Coast Guard Vessel Documentation Center.

Last reported at 2017-Dec-19 13:34 UTC. Time now 2018-Feb-19 08:25 UTC.
Position N 32°37' W 117°15'.
Warning: this ship's position is months out of date.

Length 33 m; draft 2.5 m.

Type: Passenger vessel. MMSI: 366983830.

Date/timePositionNaut miles runAvg speedWind from/ knotsBaromVisibWave heightAir tempDewpointWater temp
2017-Dec-19 13:34N 32°37' W 117°15'916.6
2017-Dec-19 13:02N 32°38' W 117°26'123.1
2017-Dec-19 13:00N 32°38' W 117°26'1223.8
2017-Dec-19 12:30N 32°48' W 117°35'1223.9
2017-Dec-19 12:00N 32°58' W 117°42'1224.2
2017-Dec-19 11:30N 33°08' W 117°51'1823.5
2017-Dec-19 10:45N 33°21' W 118°05'623.9
2017-Dec-19 10:29N 33°26' W 118°10'1123.7
2017-Dec-19 10:00N 33°32' W 118°21'1223.7
2017-Dec-19 09:30N 33°39' W 118°33'1224.2
2017-Dec-19 09:00N 33°47' W 118°44'1224.1
2017-Dec-19 08:30N 33°52' W 118°57'1223.7
2017-Dec-19 08:00N 33°58' W 119°10'1223.4
2017-Dec-19 07:30N 34°03' W 119°22'1223.6
2017-Dec-19 07:00N 34°06' W 119°36'1224.0
2017-Dec-19 06:30N 34°09' W 119°50'1223.8
2017-Dec-19 06:00N 34°13' W 120°04'1223.3
2017-Dec-19 05:30N 34°16' W 120°17'1123.1
2017-Dec-19 05:01N 34°19' W 120°31'1223.0
2017-Dec-19 04:30N 34°24' W 120°43'1223.9
2017-Dec-19 04:00N 34°34' W 120°51'1223.8
2017-Dec-19 03:30N 34°45' W 120°55'1223.7
2017-Dec-19 03:00N 34°56' W 120°59'1223.6
2017-Dec-19 02:30N 35°07' W 121°06'1223.8
2017-Dec-19 02:01N 35°18' W 121°11'1223.4
2017-Dec-19 01:30N 35°29' W 121°17'1223.7
2017-Dec-19 01:00N 35°39' W 121°24'1223.5
2017-Dec-19 00:30N 35°49' W 121°33'1223.6
2017-Dec-19 00:00N 35°58' W 121°41'1223.3
2017-Dec-18 23:30N 36°08' W 121°50'1223.6
2017-Dec-18 23:00N 36°17' W 121°59'1223.9
2017-Dec-18 22:30N 36°27' W 122°08'1223.8
2017-Dec-18 22:00N 36°37' W 122°15'1223.7
2017-Dec-18 21:30N 36°48' W 122°21'1223.2
2017-Dec-18 21:01N 36°57' W 122°30'2323.1
2017-Dec-18 20:01N 37°18' W 122°42'022.9
2017-Dec-18 20:00N 37°18' W 122°42'1121.7
2017-Dec-18 19:30N 37°29' W 122°44'1120.9
2017-Dec-18 18:59N 37°39' W 122°44'1122.0
2017-Dec-18 18:31N 37°47' W 122°35'815.6
2017-Dec-18 18:00N 37°49' W 122°25'0 0.1
2017-Dec-18 17:28N 37°49' W 122°25'0 0.0
2017-Dec-18 16:58N 37°49' W 122°25'0 0.0
2017-Dec-18 16:28N 37°49' W 122°25'  
2017-Dec-15 19:28N 37°49' W 122°25'613.6
2017-Dec-15 19:00N 37°55' W 122°26'1021.1
2017-Dec-15 18:30N 38°03' W 122°18'  
2017-Dec-12 17:07N 38°07' W 122°17'  
Track history (hours):
 
Tides and Currents Weather Stations Pressure Air Temp Water Temp Dewpoint Dewpoint Depression Visibility Wind Speed Wind Dir Waves Ship Positions

Peralta

Owner: Blue and Gold Fleet, San Francisco, CA. More information available from US FCC via Universal Licensing System and Coast Guard Vessel Documentation Center.

Last reported at 2017-Dec-19 13:34 UTC. Time now 2018-Feb-19 08:25 UTC.
Position N 32°37' W 117°15'.
Warning: this ship's position is months out of date.

Length 33 m; draft 2.5 m.

Type: Passenger vessel. MMSI: 366983830.

Date/timePositionNaut miles runAvg speedWind from/ knotsBaromVisibWave heightAir tempDewpointWater temp
2017-Dec-19 13:34N 32°37' W 117°15'916.6
2017-Dec-19 13:02N 32°38' W 117°26'123.1
2017-Dec-19 13:00N 32°38' W 117°26'1223.8
2017-Dec-19 12:30N 32°48' W 117°35'1223.9
2017-Dec-19 12:00N 32°58' W 117°42'1224.2
2017-Dec-19 11:30N 33°08' W 117°51'1823.5
2017-Dec-19 10:45N 33°21' W 118°05'623.9
2017-Dec-19 10:29N 33°26' W 118°10'1123.7
2017-Dec-19 10:00N 33°32' W 118°21'1223.7
2017-Dec-19 09:30N 33°39' W 118°33'1224.2
2017-Dec-19 09:00N 33°47' W 118°44'1224.1
2017-Dec-19 08:30N 33°52' W 118°57'1223.7
2017-Dec-19 08:00N 33°58' W 119°10'1223.4
2017-Dec-19 07:30N 34°03' W 119°22'1223.6
2017-Dec-19 07:00N 34°06' W 119°36'1224.0
2017-Dec-19 06:30N 34°09' W 119°50'1223.8
2017-Dec-19 06:00N 34°13' W 120°04'1223.3
2017-Dec-19 05:30N 34°16' W 120°17'1123.1
2017-Dec-19 05:01N 34°19' W 120°31'1223.0
2017-Dec-19 04:30N 34°24' W 120°43'1223.9
2017-Dec-19 04:00N 34°34' W 120°51'1223.8
2017-Dec-19 03:30N 34°45' W 120°55'1223.7
2017-Dec-19 03:00N 34°56' W 120°59'1223.6
2017-Dec-19 02:30N 35°07' W 121°06'1223.8
2017-Dec-19 02:01N 35°18' W 121°11'1223.4
2017-Dec-19 01:30N 35°29' W 121°17'1223.7
2017-Dec-19 01:00N 35°39' W 121°24'1223.5
2017-Dec-19 00:30N 35°49' W 121°33'1223.6
2017-Dec-19 00:00N 35°58' W 121°41'1223.3
2017-Dec-18 23:30N 36°08' W 121°50'1223.6
2017-Dec-18 23:00N 36°17' W 121°59'1223.9
2017-Dec-18 22:30N 36°27' W 122°08'1223.8
2017-Dec-18 22:00N 36°37' W 122°15'1223.7
2017-Dec-18 21:30N 36°48' W 122°21'1223.2
2017-Dec-18 21:01N 36°57' W 122°30'2323.1
2017-Dec-18 20:01N 37°18' W 122°42'022.9
2017-Dec-18 20:00N 37°18' W 122°42'1121.7
2017-Dec-18 19:30N 37°29' W 122°44'1120.9
2017-Dec-18 18:59N 37°39' W 122°44'1122.0
2017-Dec-18 18:31N 37°47' W 122°35'815.6
2017-Dec-18 18:00N 37°49' W 122°25'0 0.1
2017-Dec-18 17:28N 37°49' W 122°25'0 0.0
2017-Dec-18 16:58N 37°49' W 122°25'0 0.0
2017-Dec-18 16:28N 37°49' W 122°25'  
2017-Dec-15 19:28N 37°49' W 122°25'613.6
2017-Dec-15 19:00N 37°55' W 122°26'1021.1
2017-Dec-15 18:30N 38°03' W 122°18'  
2017-Dec-12 17:07N 38°07' W 122°17'  

Dump ship's entire track history